Time;durP1;ratioP1;P1;durP2;ratioP2;P2;SDS_P1;SDS_P2;PMS_P1;PMS_P2;Temp;Humidity;BMP_temperature;BMP_pressure;BME280_temperature;BME280_humidity;BME280_pressure;Samples;Min_cycle;Max_cycle;Signal;HPM_P1;HPM_P2
2023/11/24 00:01:37;;;;;;;15.87;6.23;;;9.10;99.90;;;;;;5039261;28;20278;-85
2023/11/24 00:04:04;;;;;;;15.50;5.83;;;9.10;99.90;;;;;;5042853;28;20334;-85
2023/11/24 00:06:32;;;;;;;18.30;6.63;;;9.10;99.90;;;;;;5037537;28;20187;-86
2023/11/24 00:08:58;;;;;;;11.53;5.77;;;9.10;99.90;;;;;;5040883;28;20190;-86
2023/11/24 00:11:26;;;;;;;22.43;7.20;;;9.10;99.90;;;;;;5039670;28;20207;-85
2023/11/24 00:13:52;;;;;;;27.30;6.43;;;9.10;99.90;;;;;;5042157;28;20278;-85
2023/11/24 00:16:18;;;;;;;13.97;5.97;;;9.10;99.90;;;;;;5044068;28;20230;-85
2023/11/24 00:18:46;;;;;;;15.63;7.00;;;9.10;99.90;;;;;;5040728;28;20645;-85
2023/11/24 00:21:11;;;;;;;16.47;6.43;;;9.00;99.90;;;;;;5041550;28;20176;-86
2023/11/24 00:23:37;;;;;;;22.57;7.03;;;9.00;99.90;;;;;;5039330;28;20210;-85
2023/11/24 00:26:06;;;;;;;15.33;6.17;;;9.00;99.90;;;;;;5040293;28;20235;-85
2023/11/24 00:28:39;;;;;;;19.97;6.03;;;9.00;99.90;;;;;;5023050;28;20183;-86
2023/11/24 00:31:06;;;;;;;16.93;6.43;;;8.90;99.90;;;;;;5038450;28;20240;-85
2023/11/24 00:33:41;;;;;;;27.97;6.77;;;8.90;99.90;;;;;;5040006;28;20238;-85
2023/11/24 00:36:07;;;;;;;15.53;6.87;;;8.90;99.90;;;;;;5038655;28;20182;-85
2023/11/24 00:38:33;;;;;;;21.27;6.43;;;8.90;99.90;;;;;;5038151;28;20191;-86
2023/11/24 00:41:00;;;;;;;27.10;7.37;;;8.80;99.90;;;;;;5037971;28;20187;-86
2023/11/24 00:43:26;;;;;;;14.90;6.37;;;8.80;99.90;;;;;;5037563;28;20211;-85
2023/11/24 00:45:53;;;;;;;30.20;6.70;;;8.80;99.90;;;;;;5040933;28;20186;-85
2023/11/24 00:48:21;;;;;;;19.83;6.33;;;8.80;99.90;;;;;;5038961;28;20176;-86
2023/11/24 00:50:47;;;;;;;19.23;6.90;;;8.80;99.90;;;;;;5035395;28;20226;-86
2023/11/24 00:53:12;;;;;;;21.67;7.00;;;8.80;99.90;;;;;;5037806;28;20191;-86
2023/11/24 00:55:38;;;;;;;20.03;6.50;;;8.80;99.90;;;;;;5038605;28;20466;-85
2023/11/24 00:58:04;;;;;;;29.13;6.57;;;8.80;99.90;;;;;;5036057;28;20195;-85
2023/11/24 01:00:30;;;;;;;19.03;6.83;;;8.80;99.90;;;;;;5019653;28;20188;-86
2023/11/24 01:02:55;;;;;;;34.67;8.47;;;8.80;99.90;;;;;;5035879;28;20203;-85
2023/11/24 01:05:21;;;;;;;26.87;6.83;;;8.80;99.90;;;;;;5035612;28;20203;-85
2023/11/24 01:07:47;;;;;;;22.70;7.30;;;8.80;99.90;;;;;;5035422;28;20179;-86
2023/11/24 01:10:13;;;;;;;20.23;6.50;;;8.70;99.90;;;;;;5034974;28;20640;-85
2023/11/24 01:12:39;;;;;;;13.63;7.73;;;8.80;99.90;;;;;;5020969;28;20175;-86
2023/11/24 01:15:08;;;;;;;25.93;6.67;;;8.70;99.90;;;;;;5038485;28;20740;-85
2023/11/24 01:17:35;;;;;;;24.10;7.93;;;8.70;99.90;;;;;;5035439;28;20194;-86
2023/11/24 01:20:01;;;;;;;16.33;6.00;;;8.60;99.90;;;;;;5019217;28;20174;-86
2023/11/24 01:22:27;;;;;;;24.70;7.23;;;8.60;99.90;;;;;;5037818;28;20174;-87
2023/11/24 01:24:53;;;;;;;20.77;6.93;;;8.60;99.90;;;;;;5035384;28;20227;-86
2023/11/24 01:27:20;;;;;;;21.40;7.20;;;8.60;99.90;;;;;;5018866;28;20241;-86
2023/11/24 01:29:45;;;;;;;24.03;7.20;;;8.60;99.90;;;;;;5020194;28;20665;-86
2023/11/24 01:32:11;;;;;;;25.63;7.43;;;8.60;99.90;;;;;;5035817;28;20219;-85
2023/11/24 01:34:39;;;;;;;26.13;7.00;;;8.70;99.90;;;;;;5034951;28;20203;-85
2023/11/24 01:37:07;;;;;;;14.10;5.50;;;8.70;99.90;;;;;;5035276;28;20175;-86
2023/11/24 01:39:34;;;;;;;15.60;5.93;;;8.60;99.90;;;;;;5035655;28;20182;-85
2023/11/24 01:42:00;;;;;;;18.27;6.33;;;8.60;99.90;;;;;;5034262;28;20180;-86
2023/11/24 01:44:27;;;;;;;22.90;6.60;;;8.60;99.90;;;;;;5034402;28;20195;-86
2023/11/24 01:46:54;;;;;;;16.47;5.93;;;8.60;99.90;;;;;;5035679;28;20229;-85
2023/11/24 01:49:20;;;;;;;13.60;5.63;;;8.60;99.90;;;;;;5036308;28;20187;-85
2023/11/24 01:51:50;;;;;;;21.93;5.77;;;8.70;99.90;;;;;;5039220;28;20233;-86
2023/11/24 01:54:18;;;;;;;14.87;5.73;;;8.70;99.90;;;;;;5043133;28;20195;-85
2023/11/24 01:56:46;;;;;;;21.33;6.10;;;8.70;99.90;;;;;;5046595;28;20176;-85
2023/11/24 01:59:15;;;;;;;20.23;5.43;;;8.60;99.90;;;;;;5045191;28;20171;-85
2023/11/24 02:01:41;;;;;;;17.50;6.03;;;8.50;99.90;;;;;;5045400;28;20175;-85
2023/11/24 02:04:06;;;;;;;14.77;6.23;;;8.40;99.90;;;;;;5047217;28;20219;-85
2023/11/24 02:06:32;;;;;;;18.97;6.03;;;8.40;99.90;;;;;;5049954;28;20206;-85
2023/11/24 02:08:59;;;;;;;16.30;6.10;;;8.30;99.90;;;;;;5045251;28;20179;-85
2023/11/24 02:11:24;;;;;;;11.80;5.50;;;8.10;99.90;;;;;;5044501;28;20200;-85
2023/11/24 02:13:50;;;;;;;21.03;6.07;;;8.10;99.90;;;;;;5043348;28;20211;-86
2023/11/24 02:16:16;;;;;;;16.20;5.77;;;8.00;99.90;;;;;;5044372;28;20187;-86
2023/11/24 02:18:43;;;;;;;14.77;6.20;;;7.90;99.90;;;;;;5046169;28;20198;-84
2023/11/24 02:21:10;;;;;;;19.63;6.23;;;7.90;99.90;;;;;;5042409;28;20179;-84
2023/11/24 02:23:36;;;;;;;14.93;6.43;;;7.80;99.90;;;;;;5027453;28;20188;-84
2023/11/24 02:26:04;;;;;;;13.27;5.53;;;7.70;99.90;;;;;;5044320;28;20183;-85
2023/11/24 02:28:31;;;;;;;11.90;5.60;;;7.60;99.90;;;;;;5042834;28;20179;-84
2023/11/24 02:31:00;;;;;;;15.57;5.73;;;7.50;99.90;;;;;;5041870;28;20253;-86
2023/11/24 02:33:26;;;;;;;12.63;4.77;;;7.40;99.90;;;;;;5040279;28;20170;-86
2023/11/24 02:35:54;;;;;;;17.27;5.90;;;7.30;99.90;;;;;;5042671;28;20625;-85
2023/11/24 02:38:20;;;;;;;18.27;5.77;;;7.20;99.90;;;;;;5041404;28;20642;-84
2023/11/24 02:40:47;;;;;;;18.37;5.87;;;7.20;99.90;;;;;;5041317;28;20179;-86
2023/11/24 02:43:13;;;;;;;14.07;5.83;;;7.20;99.90;;;;;;5038783;28;20207;-86
2023/11/24 02:45:38;;;;;;;13.93;5.50;;;7.20;99.90;;;;;;5040611;28;20692;-86
2023/11/24 02:48:05;;;;;;;14.40;5.83;;;7.20;99.90;;;;;;5039742;28;20182;-85
2023/11/24 02:50:31;;;;;;;14.03;5.73;;;7.30;99.90;;;;;;5039492;28;20269;-85
2023/11/24 02:52:56;;;;;;;17.03;5.90;;;7.30;99.90;;;;;;5040565;28;20167;-85
2023/11/24 02:55:22;;;;;;;21.10;6.23;;;7.30;99.90;;;;;;5041288;28;20188;-85
2023/11/24 02:57:50;;;;;;;15.30;4.80;;;7.30;99.90;;;;;;5041564;28;20676;-85
2023/11/24 03:00:17;;;;;;;15.43;5.87;;;7.30;99.90;;;;;;5043477;28;20232;-85
2023/11/24 03:02:43;;;;;;;21.23;5.90;;;7.30;99.90;;;;;;5041591;28;20664;-85
2023/11/24 03:05:11;;;;;;;14.70;5.80;;;7.30;99.90;;;;;;5039731;28;20219;-85
2023/11/24 03:07:37;;;;;;;16.60;6.10;;;7.30;99.90;;;;;;5041703;28;20198;-86
2023/11/24 03:10:04;;;;;;;11.97;5.70;;;7.20;99.90;;;;;;5039313;28;20179;-85
2023/11/24 03:12:30;;;;;;;25.33;7.07;;;7.20;99.90;;;;;;5039268;28;20202;-85
2023/11/24 03:14:56;;;;;;;14.23;5.03;;;7.20;99.90;;;;;;5041302;28;20199;-85
2023/11/24 03:17:21;;;;;;;17.87;4.70;;;7.10;99.90;;;;;;5041330;28;20197;-85
2023/11/24 03:19:48;;;;;;;15.87;5.37;;;7.10;99.90;;;;;;5041292;28;20179;-86
2023/11/24 03:22:14;;;;;;;12.50;4.63;;;7.00;99.90;;;;;;5041899;28;20172;-85
2023/11/24 03:24:46;;;;;;;9.00;5.57;;;6.90;99.90;;;;;;5043116;28;20286;-85
2023/11/24 03:27:11;;;;;;;9.00;4.33;;;6.90;99.90;;;;;;5043305;28;20186;-85
2023/11/24 03:29:41;;;;;;;16.80;5.07;;;6.80;99.90;;;;;;5042815;28;20195;-86
2023/11/24 03:32:06;;;;;;;9.60;5.07;;;6.80;99.90;;;;;;5043059;28;20269;-85
2023/11/24 03:34:32;;;;;;;11.43;4.80;;;6.80;99.90;;;;;;5042288;28;20203;-85
2023/11/24 03:36:58;;;;;;;13.40;5.00;;;6.80;99.90;;;;;;5041970;28;20176;-86
2023/11/24 03:39:25;;;;;;;11.53;5.80;;;6.90;99.90;;;;;;5042782;28;20167;-86
2023/11/24 03:41:51;;;;;;;17.13;5.23;;;6.90;99.90;;;;;;5043773;28;20266;-85
2023/11/24 03:44:17;;;;;;;15.53;5.50;;;7.00;99.90;;;;;;5041982;28;20209;-85
2023/11/24 03:46:43;;;;;;;12.73;4.70;;;7.00;99.90;;;;;;5043274;28;20235;-85
2023/11/24 03:49:08;;;;;;;15.37;5.00;;;7.10;99.90;;;;;;5042701;28;20180;-85
2023/11/24 03:51:35;;;;;;;11.23;4.77;;;7.10;99.90;;;;;;5039993;28;20613;-86
2023/11/24 03:54:01;;;;;;;14.00;5.20;;;7.20;99.90;;;;;;5041322;28;20218;-85
2023/11/24 03:56:26;;;;;;;11.63;4.73;;;7.20;99.90;;;;;;5044211;28;20235;-86
2023/11/24 03:58:53;;;;;;;12.37;4.80;;;7.30;99.90;;;;;;5041560;28;20179;-85
2023/11/24 04:01:19;;;;;;;17.00;5.20;;;7.30;99.90;;;;;;5040823;28;20184;-85
2023/11/24 04:03:49;;;;;;;14.23;4.90;;;7.40;99.90;;;;;;5042346;28;20193;-85
2023/11/24 04:06:15;;;;;;;13.30;4.93;;;7.50;99.90;;;;;;5041433;28;20195;-85
2023/11/24 04:08:41;;;;;;;17.83;5.80;;;7.50;99.90;;;;;;5041872;28;20247;-85
2023/11/24 04:11:07;;;;;;;9.37;4.23;;;7.50;99.90;;;;;;5040536;28;20196;-86
2023/11/24 04:13:32;;;;;;;10.20;4.50;;;7.50;99.90;;;;;;5042339;28;20183;-86
2023/11/24 04:15:58;;;;;;;7.77;4.30;;;7.40;99.90;;;;;;5041567;28;20199;-86
2023/11/24 04:18:25;;;;;;;7.23;4.10;;;7.40;99.90;;;;;;5024977;28;20190;-86
2023/11/24 04:20:51;;;;;;;5.40;4.83;;;7.30;99.90;;;;;;5040620;28;20202;-86
2023/11/24 04:23:19;;;;;;;6.80;4.07;;;7.30;99.90;;;;;;5042641;28;20209;-85
2023/11/24 04:25:45;;;;;;;7.70;4.67;;;7.30;99.90;;;;;;5042502;28;20226;-86
2023/11/24 04:28:14;;;;;;;6.97;3.90;;;7.30;99.90;;;;;;5042198;28;20203;-86
2023/11/24 04:30:40;;;;;;;7.60;4.03;;;7.30;99.90;;;;;;5041679;28;20282;-86
2023/11/24 04:33:06;;;;;;;9.23;4.50;;;7.40;99.90;;;;;;5042275;28;20175;-87
2023/11/24 04:35:32;;;;;;;9.50;4.70;;;7.40;99.90;;;;;;5041865;28;20199;-86
2023/11/24 04:37:58;;;;;;;10.50;3.97;;;7.40;99.90;;;;;;5042550;28;20237;-85
2023/11/24 04:40:24;;;;;;;11.53;4.20;;;7.40;99.90;;;;;;5043089;28;20238;-85
2023/11/24 04:42:51;;;;;;;5.13;4.03;;;7.40;99.90;;;;;;5043714;28;20170;-85
2023/11/24 04:45:18;;;;;;;6.33;4.40;;;7.40;99.90;;;;;;5044431;28;20241;-87
2023/11/24 04:47:44;;;;;;;7.70;4.20;;;7.40;99.90;;;;;;5043979;28;20176;-86
2023/11/24 04:50:10;;;;;;;11.77;4.37;;;7.40;99.90;;;;;;5043016;28;20241;-86
2023/11/24 04:52:36;;;;;;;6.53;3.77;;;7.40;99.90;;;;;;5046037;28;20167;-85
2023/11/24 04:55:03;;;;;;;4.70;3.87;;;7.40;99.90;;;;;;5044536;28;20217;-86
2023/11/24 04:57:33;;;;;;;10.47;4.10;;;7.40;99.90;;;;;;5044714;28;20243;-86
2023/11/24 05:00:00;;;;;;;4.30;3.67;;;7.40;99.90;;;;;;5030764;28;20187;-86
2023/11/24 05:02:27;;;;;;;6.30;4.00;;;7.40;99.90;;;;;;5047589;28;20182;-86
2023/11/24 05:04:55;;;;;;;8.33;4.17;;;7.40;99.90;;;;;;5047226;28;20187;-86
2023/11/24 05:07:23;;;;;;;8.97;4.00;;;7.30;99.90;;;;;;5046878;28;20191;-86
2023/11/24 05:09:49;;;;;;;6.23;4.03;;;7.30;99.90;;;;;;5048835;28;20176;-86
2023/11/24 05:12:15;;;;;;;7.10;5.37;;;7.20;99.90;;;;;;5048715;28;20217;-86
2023/11/24 05:14:40;;;;;;;8.43;5.37;;;7.20;99.90;;;;;;5049883;28;20191;-86
2023/11/24 05:17:06;;;;;;;6.20;5.50;;;7.20;99.90;;;;;;5048911;28;20188;-87
2023/11/24 05:19:32;;;;;;;8.90;5.30;;;7.20;99.90;;;;;;5037064;28;20663;-85
2023/11/24 05:21:58;;;;;;;9.33;4.17;;;7.10;99.90;;;;;;5037650;28;20187;-86
2023/11/24 05:24:23;;;;;;;8.83;4.73;;;7.20;99.90;;;;;;5039446;28;20202;-86
2023/11/24 05:26:49;;;;;;;8.07;4.20;;;7.20;99.90;;;;;;5041252;28;20194;-86
2023/11/24 05:29:15;;;;;;;9.07;4.80;;;7.20;99.90;;;;;;5039851;28;20217;-86
2023/11/24 05:31:40;;;;;;;6.77;5.57;;;7.30;99.90;;;;;;5040824;28;20269;-86
2023/11/24 05:34:06;;;;;;;9.00;5.40;;;7.30;99.90;;;;;;5041653;28;20194;-86
2023/11/24 05:36:33;;;;;;;7.80;4.60;;;7.30;99.90;;;;;;5040139;28;20210;-86
2023/11/24 05:38:59;;;;;;;7.37;4.27;;;7.40;99.90;;;;;;5041958;28;20172;-86
2023/11/24 05:41:29;;;;;;;9.43;4.73;;;7.40;99.90;;;;;;5041698;28;20190;-86
2023/11/24 05:43:56;;;;;;;16.80;5.23;;;7.40;99.90;;;;;;5040383;28;20608;-86
2023/11/24 05:46:22;;;;;;;4.00;3.57;;;7.40;99.90;;;;;;5044904;28;20243;-86
2023/11/24 05:48:48;;;;;;;11.50;3.83;;;7.50;99.90;;;;;;5016236;28;20199;-86
2023/11/24 05:51:13;;;;;;;6.03;4.10;;;7.50;99.90;;;;;;5021349;28;20308;-87
2023/11/24 05:53:40;;;;;;;6.63;4.00;;;7.50;99.90;;;;;;5051404;28;20225;-86
2023/11/24 05:56:06;;;;;;;11.00;4.67;;;7.50;99.90;;;;;;5048380;28;20187;-86
2023/11/24 05:58:34;;;;;;;8.13;4.60;;;7.60;99.90;;;;;;5043936;28;20175;-85
2023/11/24 06:01:00;;;;;;;5.23;4.30;;;7.60;99.90;;;;;;5043433;28;20680;-86
2023/11/24 06:03:26;;;;;;;6.77;4.07;;;7.60;99.90;;;;;;5042163;28;20172;-86
2023/11/24 06:05:53;;;;;;;9.80;4.23;;;7.60;99.90;;;;;;5041364;28;20187;-85
2023/11/24 06:08:18;;;;;;;9.53;4.10;;;7.60;99.90;;;;;;5042932;28;20195;-86
2023/11/24 06:10:47;;;;;;;12.33;5.03;;;7.60;99.90;;;;;;5040423;28;20206;-85
2023/11/24 06:13:13;;;;;;;11.23;5.20;;;7.60;99.90;;;;;;5041527;28;20182;-86
2023/11/24 06:15:38;;;;;;;10.07;5.43;;;7.60;99.90;;;;;;5042018;28;20566;-86
2023/11/24 06:18:04;;;;;;;11.93;4.90;;;7.60;99.90;;;;;;5042285;28;20175;-86
2023/11/24 06:20:30;;;;;;;10.67;4.27;;;7.50;99.90;;;;;;5041142;28;20298;-85
2023/11/24 06:22:57;;;;;;;7.87;4.33;;;7.60;99.90;;;;;;5041558;28;20175;-86
2023/11/24 06:25:23;;;;;;;8.47;4.70;;;7.50;99.90;;;;;;5040160;28;20202;-85
2023/11/24 06:27:50;;;;;;;8.87;4.47;;;7.50;99.90;;;;;;5040627;28;20175;-85
2023/11/24 06:30:17;;;;;;;8.37;4.20;;;7.50;99.90;;;;;;5041729;28;20187;-85
2023/11/24 06:32:43;;;;;;;5.20;3.97;;;7.50;99.90;;;;;;5044885;28;20247;-85
2023/11/24 06:35:10;;;;;;;10.07;4.63;;;7.40;99.90;;;;;;5042648;28;20222;-85
2023/11/24 06:37:38;;;;;;;13.20;5.53;;;7.40;99.90;;;;;;5044382;28;20199;-86
2023/11/24 06:40:05;;;;;;;7.83;4.87;;;7.30;99.90;;;;;;5055991;28;20550;-84
2023/11/24 06:42:30;;;;;;;10.67;4.60;;;7.30;99.90;;;;;;5037119;28;20172;-85
2023/11/24 06:44:56;;;;;;;9.67;4.87;;;7.30;99.90;;;;;;5036109;28;20516;-84
2023/11/24 06:47:23;;;;;;;6.33;4.13;;;7.30;99.90;;;;;;5037003;28;20211;-86
2023/11/24 06:49:49;;;;;;;8.80;4.30;;;7.20;99.90;;;;;;5040846;28;20322;-86
2023/11/24 06:52:16;;;;;;;6.80;4.17;;;7.20;99.90;;;;;;5022712;28;20330;-85
2023/11/24 06:54:43;;;;;;;5.97;4.07;;;7.30;99.90;;;;;;5037859;28;20239;-86
2023/11/24 06:57:08;;;;;;;10.07;4.40;;;7.30;99.90;;;;;;5020600;28;20187;-86
2023/11/24 06:59:37;;;;;;;11.63;4.23;;;7.30;99.90;;;;;;5020638;28;20550;-86
2023/11/24 07:02:03;;;;;;;6.13;4.77;;;7.40;99.90;;;;;;5020711;28;20242;-86
2023/11/24 07:04:29;;;;;;;10.67;4.97;;;7.30;99.90;;;;;;5020378;28;20275;-85
2023/11/24 07:06:55;;;;;;;10.13;4.03;;;7.20;99.90;;;;;;5041738;28;20237;-86
2023/11/24 07:09:21;;;;;;;8.80;4.67;;;7.10;99.90;;;;;;5024693;28;20180;-85
2023/11/24 07:11:47;;;;;;;5.80;4.60;;;7.00;99.90;;;;;;5043889;28;20337;-85
2023/11/24 07:14:13;;;;;;;7.20;4.70;;;7.10;99.90;;;;;;5043083;28;20188;-85
2023/11/24 07:16:39;;;;;;;11.00;4.50;;;7.10;99.90;;;;;;5047217;28;20176;-86
2023/11/24 07:19:05;;;;;;;15.33;5.43;;;7.10;99.90;;;;;;5042122;28;20187;-86
2023/11/24 07:21:31;;;;;;;11.33;5.03;;;7.20;99.90;;;;;;5043191;28;20190;-85
2023/11/24 07:23:57;;;;;;;12.80;4.87;;;7.20;99.90;;;;;;5041706;28;20253;-84
2023/11/24 07:26:23;;;;;;;9.93;4.47;;;7.30;99.90;;;;;;5043898;28;20199;-85
2023/11/24 07:28:49;;;;;;;7.30;5.43;;;7.30;99.90;;;;;;5041851;28;20181;-86
2023/11/24 07:31:17;;;;;;;8.27;5.13;;;7.30;99.90;;;;;;5044331;28;20255;-86
2023/11/24 07:33:48;;;;;;;8.93;5.00;;;7.40;99.90;;;;;;5045307;28;20167;-86
2023/11/24 07:36:15;;;;;;;7.67;4.87;;;7.40;99.90;;;;;;5047744;28;20171;-84
2023/11/24 07:38:43;;;;;;;14.30;4.60;;;7.50;99.90;;;;;;5046040;28;20239;-85
2023/11/24 07:41:09;;;;;;;10.77;5.17;;;7.40;99.90;;;;;;5046650;28;20199;-85
2023/11/24 07:43:35;;;;;;;13.53;4.43;;;7.30;99.90;;;;;;5044493;28;20172;-84
2023/11/24 07:46:05;;;;;;;9.80;5.33;;;7.10;99.90;;;;;;5044063;28;20182;-85
2023/11/24 07:48:31;;;;;;;13.03;4.70;;;7.00;99.90;;;;;;5042577;28;20179;-84
2023/11/24 07:50:57;;;;;;;6.77;4.53;;;6.90;99.90;;;;;;5043063;28;20203;-85
2023/11/24 07:53:23;;;;;;;7.37;4.50;;;6.80;99.90;;;;;;5044371;28;20210;-84
2023/11/24 07:55:49;;;;;;;7.67;5.07;;;6.70;99.90;;;;;;5045867;28;20210;-85
2023/11/24 07:58:16;;;;;;;7.17;4.97;;;6.60;99.90;;;;;;5051503;28;20179;-83
2023/11/24 08:00:41;;;;;;;8.17;4.20;;;6.50;99.90;;;;;;5046297;28;20221;-84
2023/11/24 08:03:11;;;;;;;8.27;4.13;;;6.50;99.90;;;;;;5044730;28;20185;-86
2023/11/24 08:05:38;;;;;;;5.30;4.83;;;6.40;99.90;;;;;;5045095;28;20195;-85
2023/11/24 08:08:05;;;;;;;5.03;4.63;;;6.30;99.90;;;;;;5045468;28;20255;-85
2023/11/24 08:10:31;;;;;;;5.37;4.97;;;6.10;99.90;;;;;;5027411;28;20202;-86
2023/11/24 08:12:57;;;;;;;5.17;4.43;;;6.10;99.90;;;;;;5042936;28;20750;-86
2023/11/24 08:15:23;;;;;;;8.40;3.80;;;6.00;99.90;;;;;;5041424;28;20331;-87
2023/11/24 08:17:50;;;;;;;6.17;4.27;;;6.00;99.90;;;;;;5042924;28;20210;-85
2023/11/24 08:20:19;;;;;;;4.20;3.90;;;6.00;99.90;;;;;;5044873;28;20180;-85
2023/11/24 08:22:46;;;;;;;5.27;4.20;;;6.00;99.90;;;;;;5046997;28;20218;-86
2023/11/24 08:25:11;;;;;;;6.47;4.43;;;5.90;99.90;;;;;;5042918;28;20474;-86
2023/11/24 08:27:38;;;;;;;6.77;4.40;;;5.90;99.90;;;;;;5043776;28;20175;-86
2023/11/24 08:30:10;;;;;;;4.20;3.80;;;5.90;99.90;;;;;;5041731;28;20206;-85
2023/11/24 08:32:37;;;;;;;10.20;4.40;;;5.90;99.90;;;;;;5028992;28;20207;-85
2023/11/24 08:35:04;;;;;;;7.20;4.20;;;5.90;99.90;;;;;;5025419;28;20283;-85
2023/11/24 08:37:30;;;;;;;4.93;4.07;;;6.20;99.90;;;;;;5024307;28;20672;-87
2023/11/24 08:39:56;;;;;;;4.00;3.70;;;6.60;99.90;;;;;;5022641;28;20184;-85
2023/11/24 08:42:23;;;;;;;8.93;3.83;;;6.80;99.90;;;;;;5046056;28;20195;-86
2023/11/24 08:44:49;;;;;;;5.17;4.20;;;7.20;99.90;;;;;;5044717;28;20200;-85
2023/11/24 08:47:14;;;;;;;4.50;4.10;;;7.30;99.90;;;;;;5044898;28;20215;-85
2023/11/24 08:49:40;;;;;;;9.10;4.97;;;7.30;99.90;;;;;;5042498;28;20326;-85
2023/11/24 08:52:05;;;;;;;4.83;3.90;;;7.20;99.90;;;;;;5046186;28;20222;-85
2023/11/24 08:54:32;;;;;;;5.20;4.70;;;7.10;99.90;;;;;;5043105;28;20203;-86
2023/11/24 08:56:58;;;;;;;4.67;4.10;;;7.10;99.90;;;;;;5043723;28;20184;-85
2023/11/24 08:59:24;;;;;;;6.30;4.33;;;7.20;99.90;;;;;;5043345;28;20297;-86
2023/11/24 09:01:51;;;;;;;10.23;4.63;;;7.50;99.90;;;;;;5040676;28;20365;-85
2023/11/24 09:04:16;;;;;;;6.30;4.00;;;7.70;99.90;;;;;;5042230;28;20223;-85
2023/11/24 09:06:42;;;;;;;7.23;4.40;;;7.90;99.90;;;;;;5041388;28;20191;-85
2023/11/24 09:09:08;;;;;;;6.93;4.03;;;7.90;99.90;;;;;;5041915;28;20194;-85
2023/11/24 09:11:34;;;;;;;8.70;4.00;;;7.90;99.90;;;;;;5040964;28;20253;-86
2023/11/24 09:14:03;;;;;;;7.70;4.07;;;7.60;99.90;;;;;;5040784;28;20825;-85
2023/11/24 09:16:28;;;;;;;12.10;4.43;;;7.50;99.90;;;;;;5042716;28;20540;-86
2023/11/24 09:18:57;;;;;;;6.73;3.77;;;7.40;99.90;;;;;;5039533;28;20175;-86
2023/11/24 09:21:24;;;;;;;4.17;3.77;;;7.30;99.90;;;;;;5040002;28;20176;-85
2023/11/24 09:23:50;;;;;;;8.13;4.53;;;7.30;99.90;;;;;;5037040;28;20199;-85
2023/11/24 09:26:15;;;;;;;6.30;3.77;;;7.40;99.90;;;;;;5035874;28;20649;-86
2023/11/24 09:28:42;;;;;;;8.57;4.33;;;7.40;99.90;;;;;;5034962;28;20190;-86
2023/11/24 09:31:12;;;;;;;7.97;4.10;;;7.30;99.90;;;;;;5036862;28;20207;-86
2023/11/24 09:33:39;;;;;;;9.03;4.00;;;7.30;99.90;;;;;;5036240;28;20592;-85
2023/11/24 09:36:07;;;;;;;7.87;4.60;;;7.30;99.90;;;;;;5035571;28;20191;-86
2023/11/24 09:38:34;;;;;;;7.30;3.90;;;7.40;99.90;;;;;;5037451;28;20179;-85
2023/11/24 09:41:11;;;;;;;7.97;4.20;;;7.40;99.90;;;;;;5035187;28;20179;-87
2023/11/24 09:43:40;;;;;;;7.67;4.03;;;7.40;99.90;;;;;;5042271;28;20178;-85
2023/11/24 09:46:10;;;;;;;16.83;4.67;;;7.50;99.90;;;;;;5023087;28;20564;-85
2023/11/24 09:48:41;;;;;;;6.67;4.50;;;7.50;99.90;;;;;;5040302;28;20183;-86
2023/11/24 09:51:15;;;;;;;7.70;3.63;;;7.50;99.90;;;;;;5039551;28;20291;-86
2023/11/24 09:53:41;;;;;;;4.40;3.60;;;7.50;99.90;;;;;;5041687;28;20178;-86
2023/11/24 09:56:07;;;;;;;9.97;4.10;;;7.50;99.90;;;;;;5035869;28;20210;-86
2023/11/24 09:58:33;;;;;;;4.93;3.40;;;7.50;99.90;;;;;;5037718;28;20556;-87
2023/11/24 10:01:07;;;;;;;4.53;4.03;;;7.60;99.90;;;;;;5033561;28;20198;-86
2023/11/24 10:03:39;;;;;;;4.37;4.07;;;7.50;99.90;;;;;;5018761;28;20223;-88
2023/11/24 10:06:08;;;;;;;5.17;3.90;;;7.50;99.90;;;;;;5012386;28;20265;-86
2023/11/24 10:08:36;;;;;;;9.37;3.63;;;7.40;99.90;;;;;;5037179;28;20202;-85
2023/11/24 10:11:17;;;;;;;4.47;3.90;;;7.40;99.90;;;;;;5039613;28;20265;-86
2023/11/24 10:13:44;;;;;;;6.60;4.07;;;7.30;99.90;;;;;;5025093;28;20190;-86
2023/11/24 10:16:13;;;;;;;5.10;4.23;;;7.30;99.90;;;;;;5042061;28;20179;-86
2023/11/24 10:18:41;;;;;;;5.43;3.63;;;7.20;1.00;;;;;;5043685;28;20576;-87
2023/11/24 10:21:09;;;;;;;4.63;4.30;;;7.20;16.60;;;;;;5041426;28;20199;-86
2023/11/24 10:23:35;;;;;;;5.17;4.17;;;7.20;1.00;;;;;;5043641;28;20311;-86
2023/11/24 10:26:01;;;;;;;7.00;3.70;;;7.20;1.00;;;;;;5045694;28;20191;-86
2023/11/24 10:28:27;;;;;;;4.23;3.80;;;7.10;99.90;;;;;;5029281;28;20190;-85
2023/11/24 10:30:56;;;;;;;4.63;3.93;;;7.00;1.00;;;;;;5047092;28;20234;-86
2023/11/24 10:33:29;;;;;;;10.40;9.60;;;7.00;1.00;;;;;;5049799;28;20240;-86
2023/11/24 10:35:56;;;;;;;7.67;4.07;;;7.00;1.00;;;;;;5046398;28;20182;-86
2023/11/24 10:38:23;;;;;;;8.80;4.33;;;7.00;1.00;;;;;;5030036;28;20218;-86
2023/11/24 10:40:50;;;;;;;5.97;3.97;;;7.00;78.50;;;;;;5046272;28;20550;-86
2023/11/24 10:43:19;;;;;;;4.83;4.00;;;7.00;99.90;;;;;;5046865;28;20175;-86
2023/11/24 10:45:49;;;;;;;4.83;3.77;;;6.80;99.90;;;;;;5045940;28;20199;-88
2023/11/24 10:48:19;;;;;;;10.37;4.07;;;6.70;1.00;;;;;;5046019;28;20203;-84
2023/11/24 10:51:27;;;;;;;6.53;3.90;;;6.60;1.00;;;;;;5047017;28;20199;-85
2023/11/24 10:53:56;;;;;;;7.10;4.43;;;6.60;1.00;;;;;;5044161;28;20288;-88
2023/11/24 10:56:23;;;;;;;4.00;3.70;;;6.60;1.00;;;;;;5045199;28;20167;-86
2023/11/24 10:58:53;;;;;;;6.10;4.13;;;6.60;1.00;;;;;;5043425;28;20163;-85
2023/11/24 11:01:22;;;;;;;4.37;3.90;;;6.90;1.00;;;;;;5042469;28;20184;-86
2023/11/24 11:03:52;;;;;;;3.70;3.40;;;7.10;99.90;;;;;;5045408;28;20199;-86
2023/11/24 11:06:36;;;;;;;4.73;3.83;;;7.10;99.90;;;;;;5044056;28;20191;-86
2023/11/24 11:09:29;;;;;;;8.97;4.43;;;7.10;1.00;;;;;;5045728;28;20566;-85
2023/11/24 11:12:32;;;;;;;4.00;3.70;;;7.10;99.90;;;;;;5048489;28;20199;-86
2023/11/24 11:15:03;;;;;;;4.10;3.70;;;7.10;1.00;;;;;;5042876;28;20644;-86
2023/11/24 11:17:29;;;;;;;4.33;4.00;;;7.20;1.00;;;;;;5043124;28;20188;-87
2023/11/24 11:20:06;;;;;;;5.43;3.67;;;7.30;99.90;;;;;;5039004;28;20182;-86
2023/11/24 11:22:39;;;;;;;4.30;4.00;;;7.50;1.00;;;;;;5040186;28;20182;-85
2023/11/24 11:25:14;;;;;;;4.03;3.73;;;7.60;1.00;;;;;;5041295;28;20187;-87
2023/11/24 11:27:45;;;;;;;4.27;3.90;;;7.60;99.90;;;;;;5040169;28;20542;-85
2023/11/24 11:30:26;;;;;;;5.40;3.40;;;7.90;99.90;;;;;;5025416;28;20207;-86
2023/11/24 11:33:06;;;;;;;5.67;3.93;;;8.10;99.90;;;;;;5039331;28;20214;-85
2023/11/24 11:35:35;;;;;;;6.93;3.40;;;8.20;99.90;;;;;;5041475;28;20288;-85
2023/11/24 11:38:00;;;;;;;4.00;3.70;;;8.40;83.10;;;;;;5037118;28;20176;-85
2023/11/24 11:40:32;;;;;;;4.03;3.73;;;8.60;26.70;;;;;;5020050;28;20684;-84
2023/11/24 11:43:05;;;;;;;5.00;4.60;;;8.40;1.00;;;;;;5037300;28;20225;-86
2023/11/24 11:45:31;;;;;;;8.23;4.67;;;8.10;5.70;;;;;;5037370;28;20238;-85
2023/11/24 11:48:02;;;;;;;4.63;3.93;;;8.00;8.50;;;;;;5037651;28;20226;-85
2023/11/24 11:50:29;;;;;;;4.13;3.90;;;7.90;1.00;;;;;;5035376;28;20271;-83
2023/11/24 11:53:00;;;;;;;5.57;5.07;;;7.70;14.80;;;;;;5037580;28;20552;-85
2023/11/24 11:55:28;;;;;;;8.00;3.87;;;7.60;97.70;;;;;;5009839;28;20666;-85
2023/11/24 11:58:01;;;;;;;5.27;3.90;;;7.30;99.90;;;;;;5020133;28;20535;-85
2023/11/24 12:00:30;;;;;;;4.47;4.17;;;6.80;1.00;;;;;;5019738;28;20168;-85
2023/11/24 12:03:04;;;;;;;3.70;3.40;;;6.60;1.00;;;;;;5021084;28;20180;-84
2023/11/24 12:05:32;;;;;;;6.27;3.80;;;6.40;1.00;;;;;;5003659;28;20213;-84
2023/11/24 12:07:58;;;;;;;3.97;3.57;;;6.20;99.90;;;;;;5034582;28;20194;-84
2023/11/24 12:10:29;;;;;;;4.00;3.67;;;6.00;1.00;;;;;;5039090;28;20179;-84
2023/11/24 12:12:55;;;;;;;4.23;4.03;;;5.90;99.90;;;;;;5038941;28;20217;-83
2023/11/24 12:15:23;;;;;;;3.50;3.30;;;5.60;99.90;;;;;;5037182;28;20728;-84
2023/11/24 12:17:56;;;;;;;3.80;3.50;;;5.40;1.00;;;;;;5036889;28;20676;-84
2023/11/24 12:20:23;;;;;;;5.03;3.63;;;5.20;1.00;;;;;;5037858;28;20172;-84
2023/11/24 12:22:50;;;;;;;5.00;3.63;;;5.10;1.00;;;;;;5041367;28;20180;-85
2023/11/24 12:25:16;;;;;;;3.80;3.60;;;5.00;1.00;;;;;;5042144;28;20202;-84
2023/11/24 12:27:43;;;;;;;3.57;3.33;;;5.10;99.90;;;;;;5041528;28;20171;-85
2023/11/24 12:30:14;;;;;;;4.03;3.67;;;5.30;99.90;;;;;;5041042;28;20213;-85
2023/11/24 12:32:48;;;;;;;4.53;3.70;;;5.60;99.90;;;;;;5041144;28;20203;-85
2023/11/24 12:35:14;;;;;;;3.70;3.50;;;5.80;35.90;;;;;;5040024;28;20214;-85
2023/11/24 12:37:42;;;;;;;3.60;3.40;;;6.00;1.00;;;;;;5039237;28;20183;-84
2023/11/24 12:40:11;;;;;;;4.23;3.83;;;6.00;1.00;;;;;;5038936;28;20179;-84
2023/11/24 12:42:46;;;;;;;4.80;3.90;;;6.00;1.00;;;;;;5038362;28;20215;-85
2023/11/24 12:45:13;;;;;;;4.20;3.90;;;6.10;1.00;;;;;;5023087;28;20207;-85
2023/11/24 12:47:39;;;;;;;4.87;4.10;;;6.00;99.90;;;;;;5022419;28;20218;-85
2023/11/24 12:50:10;;;;;;;4.87;4.20;;;5.80;1.00;;;;;;5039631;28;20183;-85
2023/11/24 12:52:37;;;;;;;4.47;3.87;;;5.70;1.00;;;;;;5038359;28;20255;-84
2023/11/24 12:55:11;;;;;;;5.17;4.77;;;5.60;1.00;;;;;;5039098;28;20223;-84